createdAt,value
2022-11-02T00:01:40.178Z,11.25
2022-11-02T00:04:08.017Z,11.52
2022-11-02T00:06:35.672Z,12.82
2022-11-02T00:09:03.137Z,12.32
2022-11-02T00:11:30.985Z,12.97
2022-11-02T00:13:58.462Z,12.10
2022-11-02T00:16:26.101Z,11.25
2022-11-02T00:18:57.608Z,10.25
2022-11-02T00:21:27.278Z,11.90
2022-11-02T00:23:58.064Z,11.40
2022-11-02T00:26:28.041Z,12.93
2022-11-02T00:28:56.069Z,12.10
2022-11-02T00:31:23.461Z,11.38
2022-11-02T00:33:51.946Z,12.75
2022-11-02T00:36:19.942Z,9.97
2022-11-02T00:38:47.685Z,11.85
2022-11-02T00:41:15.319Z,13.68
2022-11-02T00:43:42.968Z,14.65
2022-11-02T00:46:10.532Z,38.95
2022-11-02T00:48:37.921Z,14.67
2022-11-02T00:51:05.972Z,21.35
2022-11-02T00:53:33.440Z,28.25
2022-11-02T00:56:01.270Z,13.10
2022-11-02T00:58:29.419Z,33.10
2022-11-02T01:00:57.107Z,14.90
2022-11-02T01:03:24.553Z,12.65
2022-11-02T01:05:52.247Z,16.55
2022-11-02T01:08:19.635Z,28.70
2022-11-02T01:10:48.367Z,15.75
2022-11-02T01:13:17.665Z,11.43
2022-11-02T01:15:45.078Z,10.18
2022-11-02T01:18:12.489Z,24.50
2022-11-02T01:20:40.178Z,14.02
2022-11-02T01:23:07.549Z,31.37
2022-11-02T01:25:34.942Z,20.73
2022-11-02T01:28:02.964Z,15.18
2022-11-02T01:30:30.540Z,23.73
2022-11-02T01:32:57.945Z,54.45
2022-11-02T01:35:27.117Z,37.55
2022-11-02T01:37:55.103Z,37.47
2022-11-02T01:40:22.614Z,37.95
2022-11-02T01:42:50.344Z,27.40
2022-11-02T01:45:17.941Z,53.28
2022-11-02T01:47:48.624Z,36.80
2022-11-02T01:50:21.009Z,45.60
2022-11-02T01:52:48.658Z,28.33
2022-11-02T01:55:19.469Z,20.77
2022-11-02T01:57:53.324Z,29.65
2022-11-02T02:00:21.461Z,17.73
2022-11-02T02:03:06.632Z,34.17
2022-11-02T02:05:40.931Z,45.33
2022-11-02T02:08:10.024Z,37.15
2022-11-02T02:10:37.445Z,44.60
2022-11-02T02:13:07.039Z,27.20
2022-11-02T02:15:45.335Z,25.60
2022-11-02T02:18:31.397Z,41.30
2022-11-02T02:21:14.026Z,24.27
2022-11-02T02:24:19.517Z,31.85
2022-11-02T02:27:07.666Z,32.83
2022-11-02T02:30:04.054Z,25.53
2022-11-02T02:32:39.808Z,24.35
2022-11-02T02:35:13.742Z,35.75
2022-11-02T02:37:51.864Z,19.80
2022-11-02T02:40:30.399Z,22.95
2022-11-02T02:43:02.033Z,22.63
2022-11-02T02:45:37.519Z,21.62
2022-11-02T02:48:13.253Z,41.30
2022-11-02T02:50:47.115Z,39.53
2022-11-02T02:53:16.644Z,19.70
2022-11-02T02:55:48.360Z,54.37
2022-11-02T02:58:21.201Z,31.50
2022-11-02T03:00:49.419Z,18.67
2022-11-02T03:03:21.350Z,36.33
2022-11-02T03:06:15.326Z,22.83
2022-11-02T03:08:52.827Z,28.30
2022-11-02T03:11:22.157Z,29.85
2022-11-02T03:14:40.581Z,32.22
2022-11-02T03:17:26.014Z,31.35
2022-11-02T03:20:30.838Z,36.67
2022-11-02T03:23:10.569Z,39.00
2022-11-02T03:25:50.024Z,45.63
2022-11-02T03:28:59.640Z,23.38
2022-11-02T03:31:58.605Z,35.15
2022-11-02T03:34:35.420Z,21.85
2022-11-02T03:37:03.779Z,34.37
2022-11-02T03:39:54.217Z,29.70
2022-11-02T03:42:27.997Z,27.27
2022-11-02T03:45:01.202Z,33.20
2022-11-02T03:47:33.183Z,33.03
2022-11-02T03:50:04.874Z,42.53
2022-11-02T03:52:34.514Z,26.37
2022-11-02T03:55:10.061Z,30.65
2022-11-02T03:57:51.215Z,40.42
2022-11-02T04:00:24.805Z,30.98
2022-11-02T04:03:04.138Z,24.57
2022-11-02T04:05:34.930Z,20.75
2022-11-02T04:08:23.005Z,28.20
2022-11-02T04:11:10.656Z,20.80
2022-11-02T04:13:57.137Z,24.73
2022-11-02T04:16:28.198Z,14.47
2022-11-02T04:19:15.684Z,10.85
2022-11-02T04:22:03.324Z,12.90
2022-11-02T04:24:51.050Z,10.98
2022-11-02T04:27:21.132Z,12.30
2022-11-02T04:29:49.381Z,10.80
2022-11-02T04:32:37.962Z,20.10
2022-11-02T04:35:07.247Z,16.05
2022-11-02T04:38:01.251Z,11.10
2022-11-02T04:40:29.601Z,13.15
2022-11-02T04:42:57.343Z,11.73
2022-11-02T04:45:24.892Z,10.63
2022-11-02T04:47:53.228Z,12.50
2022-11-02T04:50:21.587Z,11.50
2022-11-02T04:52:58.552Z,10.18
2022-11-02T04:55:27.255Z,10.87
2022-11-02T04:57:54.989Z,12.27
2022-11-02T05:00:23.925Z,11.88
2022-11-02T05:02:52.038Z,12.88
2022-11-02T05:05:20.163Z,13.90
2022-11-02T05:07:48.086Z,14.03
2022-11-02T05:10:16.210Z,12.35
2022-11-02T05:12:45.010Z,11.45
2022-11-02T05:15:12.935Z,12.13
2022-11-02T05:17:40.889Z,11.38
2022-11-02T05:20:08.911Z,11.90
2022-11-02T05:22:36.628Z,11.95
2022-11-02T05:25:04.664Z,13.07
2022-11-02T05:27:32.862Z,17.33
2022-11-02T05:30:00.478Z,15.88
2022-11-02T05:32:28.549Z,15.47
2022-11-02T05:34:56.192Z,13.48
2022-11-02T05:37:23.863Z,14.00
2022-11-02T05:39:51.621Z,14.52
2022-11-02T05:42:19.041Z,14.30
2022-11-02T05:44:46.505Z,13.77
2022-11-02T05:47:14.349Z,13.30
2022-11-02T05:49:41.723Z,18.02
2022-11-02T05:52:09.110Z,17.12
2022-11-02T05:54:36.846Z,18.75
2022-11-02T05:57:04.239Z,23.07
2022-11-02T05:59:31.623Z,21.25
2022-11-02T06:01:59.327Z,23.75
2022-11-02T06:04:27.174Z,19.85
2022-11-02T06:06:54.889Z,17.60
2022-11-02T06:09:22.286Z,19.33
2022-11-02T06:11:49.967Z,16.75
2022-11-02T06:14:17.372Z,16.98
2022-11-02T06:16:44.763Z,18.75
2022-11-02T06:19:12.532Z,19.00
2022-11-02T06:21:42.092Z,17.03
2022-11-02T06:24:12.198Z,22.33
2022-11-02T06:26:39.605Z,18.83
2022-11-02T06:29:06.980Z,18.30
2022-11-02T06:31:34.678Z,17.73
2022-11-02T06:34:02.203Z,16.63
2022-11-02T06:36:29.572Z,18.65
2022-11-02T06:38:57.446Z,17.98
2022-11-02T06:41:24.846Z,18.37
2022-11-02T06:43:52.339Z,23.35
2022-11-02T06:46:20.088Z,16.90
2022-11-02T06:48:48.192Z,18.50
2022-11-02T06:51:15.630Z,17.40
2022-11-02T06:53:43.374Z,16.12
2022-11-02T06:56:12.391Z,17.62
2022-11-02T06:58:39.773Z,16.53
2022-11-02T07:01:08.928Z,17.50
2022-11-02T07:03:36.582Z,16.55
2022-11-02T07:06:06.362Z,17.75
2022-11-02T07:08:36.333Z,17.73
2022-11-02T07:11:03.840Z,18.07
2022-11-02T07:13:31.233Z,15.63
2022-11-02T07:15:58.914Z,17.00
2022-11-02T07:18:26.290Z,20.33
2022-11-02T07:20:53.698Z,18.10
2022-11-02T07:23:24.144Z,19.73
2022-11-02T07:25:52.107Z,19.12
2022-11-02T07:28:19.910Z,17.58
2022-11-02T07:30:47.858Z,16.67
2022-11-02T07:33:15.237Z,15.13
2022-11-02T07:35:42.642Z,18.23
2022-11-02T07:38:11.510Z,18.17
2022-11-02T07:40:39.162Z,17.95
2022-11-02T07:43:07.296Z,19.95
2022-11-02T07:45:36.225Z,19.70
2022-11-02T07:48:03.730Z,19.27
2022-11-02T07:50:31.141Z,20.98
2022-11-02T07:52:59.369Z,21.40
2022-11-02T07:55:29.333Z,18.95
2022-11-02T07:58:08.109Z,21.85
2022-11-02T08:00:39.072Z,24.87
2022-11-02T08:03:09.262Z,26.80
2022-11-02T08:05:39.286Z,30.08
2022-11-02T08:08:18.258Z,27.42
2022-11-02T08:10:47.688Z,27.85
2022-11-02T08:13:18.327Z,26.87
2022-11-02T08:15:52.566Z,27.95
2022-11-02T08:18:22.951Z,28.33
2022-11-02T08:20:51.212Z,30.45
2022-11-02T08:23:19.977Z,26.60
2022-11-02T08:25:49.810Z,28.50
2022-11-02T08:28:23.215Z,27.50
2022-11-02T08:30:51.062Z,27.45
2022-11-02T08:33:19.832Z,25.10
2022-11-02T08:35:48.561Z,23.70
2022-11-02T08:38:17.364Z,24.37
2022-11-02T08:40:47.453Z,23.00
2022-11-02T08:43:15.383Z,22.60
2022-11-02T08:48:33.025Z,25.25
2022-11-02T08:51:00.753Z,21.67
2022-11-02T08:53:28.446Z,25.55
2022-11-02T08:55:59.271Z,25.05
2022-11-02T08:58:27.193Z,23.27
2022-11-02T09:00:55.590Z,24.12
2022-11-02T09:03:26.851Z,24.30
2022-11-02T09:06:02.496Z,24.55
2022-11-02T09:08:30.468Z,24.55
2022-11-02T09:11:03.765Z,28.45
2022-11-02T09:13:31.598Z,27.00
2022-11-02T09:16:00.454Z,27.13
2022-11-02T09:18:28.415Z,29.23
2022-11-02T09:20:56.447Z,22.67
2022-11-02T09:23:24.171Z,27.85
2022-11-02T09:25:51.610Z,23.98
2022-11-02T09:28:19.348Z,24.10
2022-11-02T09:30:47.364Z,28.45
2022-11-02T09:33:15.132Z,25.48
2022-11-02T09:35:45.451Z,24.85
2022-11-02T09:38:14.063Z,23.02
2022-11-02T09:41:18.431Z,21.83
2022-11-02T09:44:04.863Z,23.33
2022-11-02T09:46:40.097Z,21.55
2022-11-02T09:49:16.014Z,22.50
2022-11-02T09:51:52.150Z,24.23
2022-11-02T09:54:39.291Z,24.90
2022-11-02T09:57:11.652Z,22.58
2022-11-02T09:59:41.445Z,22.95
2022-11-02T10:02:20.882Z,24.42
2022-11-02T10:04:51.363Z,26.12
2022-11-02T10:07:43.602Z,24.00
2022-11-02T10:10:18.110Z,24.35
2022-11-02T10:13:06.959Z,22.20
2022-11-02T10:16:33.169Z,22.42
2022-11-02T10:19:03.065Z,25.05
2022-11-02T10:21:34.889Z,22.97
2022-11-02T10:24:29.438Z,26.48
2022-11-02T10:27:01.047Z,21.50
2022-11-02T10:30:06.628Z,22.42
2022-11-02T10:32:38.680Z,22.02
2022-11-02T10:35:34.015Z,22.80
2022-11-02T10:38:43.246Z,24.48
2022-11-02T10:41:24.161Z,21.33
2022-11-02T10:44:20.238Z,21.42
2022-11-02T10:46:56.745Z,22.67
2022-11-02T10:49:24.408Z,21.63
2022-11-02T10:51:51.878Z,20.60
2022-11-02T10:54:24.044Z,23.15
2022-11-02T10:56:59.044Z,26.60
2022-11-02T10:59:26.979Z,23.17
2022-11-02T11:01:58.920Z,24.97
2022-11-02T11:04:28.615Z,23.35
2022-11-02T11:06:57.121Z,22.58
2022-11-02T11:09:32.098Z,24.30
2022-11-02T11:12:03.295Z,23.30
2022-11-02T11:20:38.150Z,23.40
2022-11-02T11:23:20.793Z,22.52
2022-11-02T11:26:25.805Z,21.77
2022-11-02T11:28:56.101Z,22.63
2022-11-02T11:31:24.267Z,22.10
2022-11-02T11:33:56.027Z,22.92
2022-11-02T11:36:35.638Z,24.63
2022-11-02T11:39:22.433Z,18.40
2022-11-02T11:41:50.452Z,24.93
2022-11-02T11:44:18.152Z,20.83
2022-11-02T11:46:49.325Z,20.33
2022-11-02T11:52:30.915Z,22.45
2022-11-02T11:55:26.821Z,17.93
2022-11-02T11:58:16.114Z,19.52
2022-11-02T12:00:44.271Z,20.35
2022-11-02T12:03:13.950Z,17.98
2022-11-02T12:06:13.900Z,19.23
2022-11-02T12:09:04.212Z,18.67
2022-11-02T12:11:37.974Z,16.05
2022-11-02T12:14:23.683Z,19.10
2022-11-02T12:17:08.577Z,21.08
2022-11-02T12:19:50.896Z,16.60
2022-11-02T12:22:34.657Z,19.87
2022-11-02T12:25:28.039Z,20.35
2022-11-02T12:28:24.934Z,19.10
2022-11-02T12:31:35.340Z,18.42
2022-11-02T12:34:05.715Z,22.73
2022-11-02T12:37:32.654Z,15.57
2022-11-02T12:39:48.402Z,18.37
2022-11-02T12:42:37.893Z,16.70
2022-11-02T12:45:21.494Z,17.87
2022-11-02T12:48:00.832Z,15.05
2022-11-02T12:50:52.073Z,14.80
2022-11-02T12:53:57.661Z,16.27
2022-11-02T12:56:33.167Z,13.60
2022-11-02T12:59:01.036Z,14.98
2022-11-02T13:01:35.936Z,14.90
2022-11-02T13:04:26.139Z,15.13
2022-11-02T13:07:03.883Z,15.70
2022-11-02T13:09:40.417Z,15.38
2022-11-02T13:12:15.122Z,13.13
2022-11-02T13:14:46.237Z,9.30
2022-11-02T13:17:20.835Z,9.57
2022-11-02T13:19:55.804Z,9.65
2022-11-02T13:22:28.740Z,10.13
2022-11-02T13:25:12.665Z,12.25
2022-11-02T13:27:48.733Z,8.60
2022-11-02T13:30:18.590Z,13.00
2022-11-02T13:32:58.818Z,11.38
2022-11-02T13:35:41.117Z,11.25
2022-11-02T13:38:46.078Z,9.95
2022-11-02T13:41:39.935Z,9.25
2022-11-02T13:44:19.531Z,10.03
2022-11-02T13:47:06.714Z,10.68
2022-11-02T13:49:37.206Z,9.18
2022-11-02T13:52:21.132Z,10.30
2022-11-02T13:57:38.752Z,11.13
2022-11-02T14:00:41.347Z,11.63
2022-11-02T14:03:27.670Z,10.80
2022-11-02T14:06:01.005Z,11.60
2022-11-02T14:08:36.336Z,17.87
2022-11-02T14:11:08.972Z,10.80
2022-11-02T14:13:52.075Z,15.57
2022-11-02T14:16:47.775Z,10.68
2022-11-02T14:19:20.267Z,9.75
2022-11-02T14:21:48.189Z,10.05
2022-11-02T14:24:39.674Z,12.60
2022-11-02T14:27:12.965Z,11.85
2022-11-02T14:29:46.895Z,13.40
2022-11-02T14:32:17.223Z,10.52
2022-11-02T14:34:58.623Z,12.32
2022-11-02T14:38:10.436Z,12.67
2022-11-02T14:41:11.441Z,9.52
2022-11-02T14:43:47.995Z,9.98
2022-11-02T14:46:37.177Z,11.55
2022-11-02T14:49:05.991Z,13.50
2022-11-02T14:51:38.074Z,14.13
2022-11-02T14:54:18.822Z,10.68
2022-11-02T14:56:48.196Z,15.15
2022-11-02T14:59:24.615Z,11.32
2022-11-02T15:02:05.227Z,13.75
2022-11-02T15:04:35.409Z,12.60
2022-11-02T15:07:05.819Z,12.50
2022-11-02T15:09:55.279Z,12.13
2022-11-02T15:12:31.014Z,15.23
2022-11-02T15:15:04.614Z,16.48
2022-11-02T15:17:32.225Z,12.47
2022-11-02T15:19:59.555Z,12.77
2022-11-02T15:22:34.690Z,12.15
2022-11-02T15:25:16.331Z,17.70
2022-11-02T15:27:45.097Z,12.98
2022-11-02T15:30:22.532Z,14.33
2022-11-02T15:33:01.351Z,11.35
2022-11-02T15:35:39.421Z,12.65
2022-11-02T15:38:30.521Z,13.05
2022-11-02T15:41:18.101Z,13.35
2022-11-02T15:44:03.869Z,12.37
2022-11-02T15:47:01.054Z,13.45
2022-11-02T15:49:52.506Z,12.40
2022-11-02T15:53:08.584Z,12.40
2022-11-02T15:56:00.500Z,12.10
2022-11-02T15:58:46.819Z,12.87
2022-11-02T16:01:19.055Z,13.15
2022-11-02T16:03:58.014Z,12.45
2022-11-02T16:06:32.525Z,13.43
2022-11-02T16:09:02.016Z,15.18
2022-11-02T16:11:29.930Z,14.90
2022-11-02T16:14:18.159Z,14.85
2022-11-02T16:16:47.868Z,14.60
2022-11-02T16:19:20.548Z,12.77
2022-11-02T16:21:49.543Z,14.40
2022-11-02T16:24:18.216Z,13.93
2022-11-02T16:26:46.753Z,16.90
2022-11-02T16:29:32.426Z,17.40
2022-11-02T16:32:00.520Z,14.48
2022-11-02T16:34:32.207Z,15.10
2022-11-02T16:37:07.330Z,14.07
2022-11-02T16:39:41.999Z,14.38
2022-11-02T16:42:37.067Z,15.45
2022-11-02T16:45:06.678Z,12.40
2022-11-02T16:47:41.752Z,15.35
2022-11-02T16:50:26.544Z,16.43
2022-11-02T16:52:59.602Z,17.20
2022-11-02T16:55:40.798Z,19.60
2022-11-02T16:58:14.850Z,17.27
2022-11-02T17:01:05.248Z,19.50
2022-11-02T17:03:34.503Z,22.33
2022-11-02T17:06:05.930Z,18.65
2022-11-02T17:08:35.823Z,21.05
2022-11-02T17:11:13.529Z,19.40
2022-11-02T17:13:53.388Z,19.95
2022-11-02T17:16:21.869Z,17.77
2022-11-02T17:18:49.495Z,21.10
2022-11-02T17:21:22.805Z,21.58
2022-11-02T17:23:51.242Z,20.00
2022-11-02T17:26:37.387Z,21.52
2022-11-02T17:29:26.365Z,20.63
2022-11-02T17:32:01.077Z,20.77
2022-11-02T17:34:28.933Z,19.73
2022-11-02T17:36:56.474Z,21.83
2022-11-02T17:39:23.982Z,20.33
2022-11-02T17:42:15.538Z,18.97
2022-11-02T17:44:45.443Z,21.48
2022-11-02T17:47:17.699Z,19.48
2022-11-02T17:49:45.461Z,19.67
2022-11-02T17:52:16.512Z,24.20
2022-11-02T17:54:44.031Z,25.20
2022-11-02T17:57:15.498Z,28.62
2022-11-02T17:59:43.180Z,27.27
2022-11-02T18:02:15.232Z,29.33
2022-11-02T18:07:16.068Z,23.97
2022-11-02T18:09:43.758Z,27.33
2022-11-02T18:12:15.015Z,25.12
2022-11-02T18:14:42.479Z,24.98
2022-11-02T18:17:10.313Z,25.70
2022-11-02T18:19:37.734Z,24.53
2022-11-02T18:22:05.150Z,22.00
2022-11-02T18:24:32.849Z,23.80
2022-11-02T18:27:00.234Z,26.02
2022-11-02T18:29:27.647Z,24.40
2022-11-02T18:31:55.329Z,24.97
2022-11-02T18:34:22.882Z,27.55
2022-11-02T18:36:50.424Z,27.50
2022-11-02T18:39:18.204Z,29.87
2022-11-02T18:41:46.096Z,40.40
2022-11-02T18:44:15.704Z,37.17
2022-11-02T18:46:43.648Z,40.67
2022-11-02T18:49:11.124Z,42.15
2022-11-02T18:51:42.942Z,42.40
2022-11-02T18:54:11.027Z,45.90
2022-11-02T18:56:38.429Z,47.50
2022-11-02T18:59:06.098Z,53.58
2022-11-02T19:01:34.504Z,51.08
2022-11-02T19:04:02.284Z,61.30
2022-11-02T19:06:51.186Z,70.62
2022-11-02T19:09:21.601Z,70.00
2022-11-02T19:12:01.080Z,59.33
2022-11-02T19:14:34.783Z,52.42
2022-11-02T19:17:02.689Z,50.55
2022-11-02T19:19:30.557Z,43.80
2022-11-02T19:21:58.093Z,45.10
2022-11-02T19:24:25.505Z,39.03
2022-11-02T19:26:53.632Z,36.00
2022-11-02T19:29:21.249Z,34.95
2022-11-02T19:31:48.714Z,34.90
2022-11-02T19:34:16.823Z,32.20
2022-11-02T19:36:44.237Z,32.08
2022-11-02T19:39:11.850Z,26.75
2022-11-02T19:41:39.914Z,25.37
2022-11-02T19:44:07.383Z,22.25
2022-11-02T19:46:35.022Z,22.90
2022-11-02T19:49:03.007Z,21.45
2022-11-02T19:51:30.973Z,19.35
2022-11-02T19:54:00.486Z,18.67
2022-11-02T19:56:33.406Z,15.80
2022-11-02T19:59:01.348Z,14.60
2022-11-02T20:01:32.231Z,14.65
2022-11-02T20:04:00.591Z,15.38
2022-11-02T20:06:33.500Z,13.90
2022-11-02T20:09:02.276Z,14.13
2022-11-02T20:11:30.564Z,14.23
2022-11-02T20:14:00.180Z,13.68
2022-11-02T20:16:28.229Z,14.90
2022-11-02T20:18:56.494Z,14.43
2022-11-02T20:21:33.055Z,14.30
2022-11-02T20:24:03.997Z,16.03
2022-11-02T20:26:34.122Z,14.13
2022-11-02T20:29:03.379Z,15.88
2022-11-02T20:31:38.721Z,15.85
2022-11-02T20:34:08.345Z,16.30
2022-11-02T20:36:36.139Z,15.70
2022-11-02T20:39:05.510Z,17.37
2022-11-02T20:41:32.925Z,15.90
2022-11-02T20:44:00.630Z,18.20
2022-11-02T20:46:39.065Z,17.00
2022-11-02T20:49:20.520Z,16.73
2022-11-02T20:51:51.126Z,16.48
2022-11-02T20:54:20.007Z,15.45
2022-11-02T20:56:48.778Z,18.10
2022-11-02T20:59:16.221Z,20.05
2022-11-02T21:01:44.686Z,18.57
2022-11-02T21:04:18.522Z,20.12
2022-11-02T21:06:49.582Z,19.20
2022-11-02T21:09:17.811Z,19.02
2022-11-02T21:12:03.967Z,21.58
2022-11-02T21:14:31.810Z,27.77
2022-11-02T21:16:59.271Z,22.92
2022-11-02T21:19:26.710Z,24.27
2022-11-02T21:21:59.334Z,23.92
2022-11-02T21:24:28.436Z,22.13
2022-11-02T21:26:56.255Z,23.50
2022-11-02T21:29:24.194Z,21.40
2022-11-02T21:31:51.638Z,19.10
2022-11-02T21:34:19.381Z,21.65
2022-11-02T21:36:48.504Z,16.90
2022-11-02T21:39:16.029Z,14.90
2022-11-02T21:41:43.794Z,16.52
2022-11-02T21:44:12.064Z,15.88
2022-11-02T21:46:39.527Z,14.77
2022-11-02T21:49:07.515Z,15.20
2022-11-02T21:51:36.145Z,15.37
2022-11-02T21:54:03.684Z,16.37
2022-11-02T21:56:32.079Z,13.25
2022-11-02T21:58:59.680Z,13.10
2022-11-02T22:01:45.208Z,14.68
2022-11-02T22:04:31.908Z,15.33
2022-11-02T22:06:59.749Z,17.00
2022-11-02T22:09:28.497Z,14.55
2022-11-02T22:12:15.618Z,16.80
2022-11-02T22:14:44.728Z,13.93
2022-11-02T22:17:21.771Z,15.90
2022-11-02T22:19:56.389Z,15.77
2022-11-02T22:22:24.010Z,13.60
2022-11-02T22:24:51.385Z,12.63
2022-11-02T22:27:19.058Z,14.73
2022-11-02T22:29:46.480Z,15.53
2022-11-02T22:32:14.667Z,16.08
2022-11-02T22:34:43.741Z,15.60
2022-11-02T22:37:29.964Z,11.88
2022-11-02T22:39:57.649Z,12.50
2022-11-02T22:42:25.045Z,14.73
2022-11-02T22:44:55.144Z,13.52
2022-11-02T22:47:22.845Z,13.65
2022-11-02T22:49:50.218Z,15.48
2022-11-02T22:52:17.607Z,13.40
2022-11-02T22:54:45.273Z,15.10
2022-11-02T22:57:12.682Z,15.55
2022-11-02T22:59:40.106Z,13.15
2022-11-02T23:02:07.809Z,13.68
2022-11-02T23:04:35.246Z,15.75
2022-11-02T23:07:02.734Z,14.13
2022-11-02T23:09:30.406Z,15.80
2022-11-02T23:11:57.849Z,14.32
2022-11-02T23:14:25.238Z,15.27
2022-11-02T23:16:53.988Z,15.13
2022-11-02T23:19:30.944Z,13.40
2022-11-02T23:22:26.359Z,13.25
2022-11-02T23:25:11.311Z,14.43
2022-11-02T23:31:13.825Z,11.88
2022-11-02T23:33:41.627Z,10.87
2022-11-02T23:36:12.738Z,12.82
2022-11-02T23:39:01.297Z,11.48
2022-11-02T23:41:30.242Z,12.40
2022-11-02T23:44:18.933Z,11.75
2022-11-02T23:46:51.331Z,10.30
2022-11-02T23:49:19.357Z,13.35
2022-11-02T23:52:05.228Z,11.15
2022-11-02T23:54:51.709Z,14.32
2022-11-02T23:57:20.287Z,10.85
2022-11-02T23:59:48.298Z,11.07
